Orbital elements of ITALSAT 1
| Launched | 14 January 1991 |
| Flight ended | – |
| Launch site | Europe's Spaceport, Kourou, French Guiana |
| Owner | Italy |
| NORAD ID | 21055 |
| Date fetched |
Epoch osculation |
Inc. [°] |
Ecc. | RA asc node [hr] |
Arg Peri. [°] |
Mean anom [°] |
Mean motion [rev/day] |
Abs. mag |
| Date fetched |
Epoch osculation |
Inc. [°] |
Ecc. | RA asc node [hr] |
Arg Peri. [°] |
Mean anom [°] |
Mean motion [rev/day] |
Abs. mag |
| 2026 May 09 17:57 | 2026 May 05 12:49:09 | 14.5601 | 0.00144 | 23.4554 | 49.6816 | 279.4578 | 0.99955 | 6.243 |
| 2026 May 08 17:57 | 2026 May 05 12:49:09 | 14.5601 | 0.00144 | 23.4554 | 49.6816 | 279.4578 | 0.99955 | 6.243 |
| 2026 May 07 17:58 | 2026 May 05 12:49:09 | 14.5601 | 0.00144 | 23.4554 | 49.6816 | 279.4578 | 0.99955 | 6.243 |
| 2026 May 06 17:57 | 2026 May 05 12:49:09 | 14.5601 | 0.00144 | 23.4554 | 49.6816 | 279.4578 | 0.99955 | 6.243 |
| 2026 May 05 17:57 | 2026 May 05 12:49:09 | 14.5601 | 0.00144 | 23.4554 | 49.6816 | 279.4578 | 0.99955 | 6.243 |
| 2026 May 04 17:57 | 2026 Apr 30 03:24:38 | 14.5615 | 0.00144 | 23.4581 | 49.7659 | 279.4578 | 0.99955 | 6.243 |
| 2026 May 03 17:57 | 2026 Apr 30 03:24:38 | 14.5615 | 0.00144 | 23.4581 | 49.7659 | 279.4578 | 0.99955 | 6.243 |
| 2026 May 02 17:57 | 2026 Apr 30 03:24:38 | 14.5615 | 0.00144 | 23.4581 | 49.7659 | 279.4578 | 0.99955 | 6.243 |
| 2026 May 01 17:56 | 2026 Apr 30 03:24:38 | 14.5615 | 0.00144 | 23.4581 | 49.7659 | 279.4578 | 0.99955 | 6.243 |
| 2026 Apr 30 17:56 | 2026 Apr 30 03:24:38 | 14.5615 | 0.00144 | 23.4581 | 49.7659 | 279.4578 | 0.99955 | 6.243 |
| 2026 Apr 29 17:57 | 2026 Apr 23 08:35:24 | 14.5631 | 0.00144 | 23.4615 | 49.0877 | 279.4578 | 0.99955 | 6.243 |
| 2026 Apr 28 17:56 | 2026 Apr 23 08:35:24 | 14.5631 | 0.00144 | 23.4615 | 49.0877 | 279.4578 | 0.99955 | 6.243 |
| 2026 Apr 27 17:58 | 2026 Apr 23 08:35:24 | 14.5631 | 0.00144 | 23.4615 | 49.0877 | 279.4578 | 0.99955 | 6.243 |
| 2026 Apr 26 17:58 | 2026 Apr 23 08:35:24 | 14.5631 | 0.00144 | 23.4615 | 49.0877 | 279.4578 | 0.99955 | 6.243 |
| 2026 Apr 25 17:58 | 2026 Apr 23 08:35:24 | 14.5631 | 0.00144 | 23.4615 | 49.0877 | 279.4578 | 0.99955 | 6.243 |
| 2026 Apr 24 17:59 | 2026 Apr 23 08:35:24 | 14.5631 | 0.00144 | 23.4615 | 49.0877 | 279.4578 | 0.99955 | 6.243 |
| 2026 Apr 23 17:57 | 2026 Apr 19 03:14:14 | 14.5642 | 0.00144 | 23.4636 | 48.2144 | 279.4578 | 0.99955 | 6.243 |
| 2026 Apr 22 17:57 | 2026 Apr 19 03:14:14 | 14.5642 | 0.00144 | 23.4636 | 48.2144 | 279.4578 | 0.99955 | 6.243 |
| 2026 Apr 21 17:57 | 2026 Apr 19 03:14:14 | 14.5642 | 0.00144 | 23.4636 | 48.2144 | 279.4578 | 0.99955 | 6.243 |
| 2026 Apr 20 17:57 | 2026 Apr 19 03:14:14 | 14.5642 | 0.00144 | 23.4636 | 48.2144 | 279.4578 | 0.99955 | 6.243 |
| 2026 Apr 19 17:58 | 2026 Apr 19 03:14:14 | 14.5642 | 0.00144 | 23.4636 | 48.2144 | 279.4578 | 0.99955 | 6.243 |
| 2026 Apr 18 17:56 | 2026 Apr 13 01:48:58 | 14.5657 | 0.00143 | 23.4667 | 46.8072 | 279.4578 | 0.99955 | 6.243 |
| 2026 Apr 16 17:57 | 2026 Apr 13 01:48:58 | 14.5657 | 0.00143 | 23.4667 | 46.8072 | 279.4578 | 0.99955 | 6.243 |
| 2026 Apr 14 17:57 | 2026 Apr 13 01:48:58 | 14.5657 | 0.00143 | 23.4667 | 46.8072 | 279.4578 | 0.99955 | 6.243 |
| 2026 Apr 13 17:57 | 2026 Apr 13 01:48:58 | 14.5657 | 0.00143 | 23.4667 | 46.8072 | 279.4578 | 0.99955 | 6.243 |
| 2026 Apr 12 17:57 | 2026 Apr 08 06:07:05 | 14.5669 | 0.00142 | 23.4691 | 46.4711 | 279.4578 | 0.99955 | 6.243 |